vrijdag 19 januari 2018 | Home | Bestenlijsten | Nieuws | Uitslagen | Videos | Wedstrijden | VZA Ranglijsten | Weer |
 
 
Recent nieuws meer nieuws
31-12: Erwin Harmes en Marlies Kort domineren Tankloop
30-12: Yunis Stitan verrassende winnaar van 47e Kerstloop
23-12: Oegandees Aggrey Agaba wint 18e Aagtekerkerun
22-12: De beste stuurlui staan aan wal
21-12: Verslag van de 18e Aagtekerkerun
11-12: De ene crosser is de andere niet
Wedstrijdagenda meer wedstrijden
za 20-01: 1e Dow trimloop Terneuzen
za 27-01: 4e Scheldesport cross Westdorpe
za 27-01: Eugene Vink Memorial Westdorpe
za 03-02: 20e Rammekensloop Ritthem
za 03-02: Berlaerloop Koewacht
zo 04-02: Midwinter Marathon Apeldoorn
zo 04-02: 27e Midwinter Halve Marathon Cadzand
za 10-02: Erpelkappersloop Axel
za 10-02: 24e Grevelingen cross Bruinisse
zo 11-02: 41e Groet uit Schoorl Run
za 17-02: 13e Zwaarste 10 van Zeeland Westenschouwen
za 17-02: 25 km Scheldeloop Terneuzen
zo 18-02: 7e Kapellecross Kapelle-Biezelinge
Recente uitslagen meer uitslagen
za 13-01: 46e Deltacross Westenschouwen (247)
za 13-01: 20e Steense Rattenloop Sint Jansteen (123)
zo 07-01: Scheidsrechtersloop Vlissingen (98)
za 06-01: 57e Wallenloop Goes (134)
za 06-01: Jeff Thuy Memorial Heikant (211)
vr 05-01: Ondoloop Sint Laurens (56)
zo 31-12: Tankloop Westkapelle (418)
zo 31-12: 2e Natuurloop Nieuwvliet (103)
za 30-12: Eindejaarscross Axel (217)
di 26-12: Kerstloop Dishoek (606)
za 16-12: Kriekeloop Clinge (110)
za 16-12: Stratenloop Menheerse Middelharnis
za 16-12: 18e Aagtekerke Run (458)
zo 10-12: Jules Unlimitedloop Breskens (50)
za 09-12: Halve Marathon Terneuzen (142)
 
Zoek tenminste met 3 tekens van wedstrijd, datum, plaats of atleet
52e Wallenloop
Goes, zaterdag 5 januari 2013 - Organisatie: AV'56
7.44 km
PltsNaam
Tijdkm/umin/km
1  Dieter VanstreelsDuffel AC22.38Mse   19.723  3:03
2  Emmanuel LoverieAC Duffel23.49M35   18.743  3:12
3  Tommy StaalAV'5624.06Mse   18.523  3:14
4  Wim NieuwkerkTHOR24.32Mse   18.196  3:18
5  Jente SamsonThe Yellow Armada24.43Mse   18.061  3:19
6  Arno NackaertsDuffel AC25.28Mse   17.529  3:25
7  Cesar BeiloVlissingen25.43Mse   17.358  3:27
8  Laurent van NieuwenhuijzeAV'5625.48Mse   17.302  3:28
9  Simon DenisDuffel AC26.09Mse   17.071  3:31
10  Willem de KorteDynamica26.20Mse   16.952  3:32
11  Marco MaertenDuffel AC26.26M40   16.888  3:33
12  Peter van LimbergenAV'5626.30M35   16.845  3:34
13  Wilko de VosAV'5626.44M45   16.698  3:36
14  Toon BlommaertsDuffel AC26.55Mse   16.585  3:37
15  Robbert MeeuwseAV'5626.55Mse   16.585  3:37
16  Ad SluijterUtrecht26.56Mse   16.574  3:37
17  Leon JacobseDynamica27.07Mse   16.462  3:39
18  Peter BalkenendeAV'5627.23M45   16.302  3:41
19  Geert CeuppensDuffel AC27.40M35   16.135  3:43
20  Robin de VosAV'5627.41Mse   16.125  3:43
21  Marius BesuijenDynamica28.07M50   15.877  3:47
22  JaapJan RitsemaDynamica28.16M40   15.792  3:48
23  Huub van NoordenAV'5628.31Mse   15.654  3:50
24  Gert-Jan VerbruggeAV'5628.32M45   15.645  3:50
25  Jan de WildeAV'5628.47M55   15.509  3:52
26  Rico de PutterGoes28.54Mse   15.446  3:53
27  Johan KarelseHeinkenszand29.04M35   15.358  3:54
28  Marianne de KokDynamica29.08V40   15.323  3:55
29  Luc WaegemanVolharding29.32M50   15.115  3:58
30  Leo de LeeuwAV'5629.34M50   15.098  3:58
31  Wim WoutersAV'5629.39M55   15.056  3:59
32  Gerben van der BliekGoes29.40Mse   15.047  3:59
33  Maurice JacobseDynamica29.43Mse   15.022  4:00
34  Pieter GoudOostdijk30.00Mse   14.880  4:02
35  John OverweelDynamica30.01M60   14.872  4:02
36  Marc BlokHeinkenszand30.27M35   14.660  4:06
37  Joop LasseurDelta Sport30.33M65   14.612  4:06
38  Marco ToussaintAV'5630.35M45   14.596  4:07
39  Remco KapteijnAV'5630.44M40   14.525  4:08
40  Maurice SteketeeMiddelburg31.03Mse   14.377  4:10
41  Ron DellebekeDynamica31.10M50   14.323  4:11
42  Jan-Joris JoossGoes31.14M35   14.292  4:12
43  Annet van der LindeAV'5631.21V40   14.239  4:13
44  Remie OpeneerGoes31.30Mse   14.171  4:14
45  Vincent ToutenhoofdWestkapelle31.31M40   14.164  4:14
46  Geert VerlindenDuffel AC31.38M50   14.112  4:15
47  Wim TempelaarDynamica31.42M60   14.082  4:16
48  Jan JoosseKapelle-Biezelinge31.48M45   14.038  4:16
49  Wim de JongeAV'5631.49M60   14.030  4:17
50  Mieke ValkGoes32.10Vse   13.878  4:19
51  Eddy SmitDelta Sport32.25M60   13.771  4:21
52  Berry SimonseAV'5632.26M40   13.764  4:22
53  Harry ChristiaanseYerseke32.28M50   13.749  4:22
54  Lennaert van de BergeKloetinge32.29Mse   13.742  4:22
55  Saskia GooleAV'5632.30V40   13.735  4:22
56  Jan Willem MeeuwseKwadendamme32.36M50   13.693  4:23
57  Seth DijkstraMiddelburg32.37M40   13.686  4:23
58  Cor van den BergeGoes32.43M45   13.644  4:24
59  Ruud FredriksAV'5632.46M55   13.624  4:24
60  Peter NoordijkeGoes32.50M45   13.596  4:25
61  Wim RooseGoes32.56M60   13.555  4:26
62  Willem de LeeuwGoes33.03M55   13.507  4:27
63  Marc BoschHeinkenszand33.08M35   13.473  4:27
64  Idde LijnseGoes33.09Mse   13.466  4:27
65  Rudy de PauwACHL33.20M65   13.392  4:29
66  Ruben van Luijks-Gravenpolder33.22M35   13.379  4:29
67  Bas van den BrandBerghem33.31M35   13.319  4:30
68  Gertjan BakkerAV'5633.47M40   13.214  4:32
69  Edgar van Weeldens-Heer Arendskerke33.50M40   13.194  4:33
70  Acronius KramerAV'5633.56M60   13.155  4:34
71  Paul ArendsKloetinge33.59M40   13.136  4:34
72  Herman AbbinkAV'5634.13M55   13.046  4:36
73  Marcel Duvekots-Gravenpolder34.16M45   13.027  4:36
74  Christine BalkenendeAV'5634.26V45   12.964  4:38
75  Jaap OeleKapelle-Biezelinge34.32M60   12.927  4:38
76  Wim HuurmanAV'5634.34M50   12.914  4:39
77  Barry BremerGoes34.38M40   12.889  4:39
78  Michael de JongKortgene34.46Mse   12.840  4:40
79  Tom BernaertsDuffel AC34.46M35   12.840  4:40
80  Martin de RegtKapelle-Biezelinge34.50M45   12.815  4:41
81  Rinus JoosseAV'5634.51M65   12.809  4:41
82  Gertrud van NoordenAV'5634.54Vse   12.791  4:41
83  Cees LeijnseDynamica35.29M65   12.581  4:46
84  Elize BacAV'5635.36Vse   12.539  4:47
85  Stephan Korts-Heer Hendrikskinderen35.40M50   12.516  4:48
86  Esther van SluijsAV'5635.43V35   12.498  4:48
87  Leen Nieuwenhuijzes-Heer Arendskerke35.52M50   12.446  4:49
88  Kees van de LindeWemeldinge35.58M50   12.411  4:50
89  Wilbert ElissenIJsselstein36.06M45   12.366  4:51
90  AndrĂ© MinnaardKloetinge36.08M45   12.354  4:51
91  Danny ArsOvezande36.14M55   12.320  4:52
92  Marc-Jan MoerlandKrabbendijke36.54Mse   12.098  4:58
93  Arjan de VriesGoes36.59M35   12.070  4:58
94  Daaf KoomanKapelle-Biezelinge37.04M45   12.043  4:59
95  Johan Fredrikss-Heerenhoek37.04Mse   12.043  4:59
96  AndrĂ© KoningGoes37.11M60   12.005  5:00
97  Leo Goedegebures-Heer Arendskerke37.12M50   12.000  5:00
98  Henk SandeeKamperland37.17M65   11.973  5:01
99  Ineke TempelaarDynamica37.24V50   11.936  5:02
100  Marieke PadmoesGoes37.38V35   11.862  5:03
101  Ingmar BermanGoes37.41M40   11.846  5:04
102  John UitterhoeveGoes37.54Mse   11.778  5:06
103  Ellen UsmaniMiddelburg38.09V45   11.701  5:08
104  Jack KarelseAV'5638.27M40   11.610  5:10
105  Femke BijlsmaGoes38.37Vse   11.560  5:11
106  Piet VerwijsGoes38.54M60   11.476  5:14
107  Wendy LeysLier38.59V35   11.451  5:14
108  Nancy LeijsDuffel AC39.00V40   11.446  5:15
109  Ad van LiereGoes39.11M55   11.393  5:16
110  Janneke KoomanKapelle-Biezelinge39.15V40   11.373  5:17
111  Mart-Jan DelzenneKrabbendijke39.45M35   11.230  5:21
112  Philip LuitwielerGoes39.55M60   11.183  5:22
113  Arthur StijnsOudelande40.14M65   11.095  5:24
114  Hugo PoortvlietDynamica40.18M65   11.077  5:25
115  Kees TraasKapelle-Biezelinge40.27M65   11.036  5:26
116  Martin OosterveldGoes40.35M50   11.000  5:27
117  Cindy LeijsDuffel AC40.38V35   10.986  5:28
118  Jan RooseGoes41.05M60   10.866  5:31
119  Joachim MeermanGoes41.10Mse   10.844  5:32
120  Arno van TrigtGoes41.16M50   10.817  5:33
121  Jeanine VermueGoes41.19V35   10.804  5:33
122  Ton GroenKapelle-Biezelinge41.33M65   10.744  5:35
123  Alex de PutterGoes42.26M45   10.520  5:42
124  Remko van LoonGoes42.40Mse   10.463  5:44
125  Chantal van de LindeWemeldinge42.45V45   10.442  5:45
126  Bonnie OosterveldGoes42.46Vse   10.438  5:45
127  Tes van MindeWilhelminadorp42.47Vse   10.434  5:45
128  Robert-Jan GrootGoes42.50Mse   10.422  5:45
129  Peter CastelGoes42.53M50   10.410  5:46
130  Anja de KortWemeldinge43.56V40   10.161  5:54
131  Diana SinkeMiddelburg44.13V50   10.096  5:57
132  Ellen StolkRotterdam44.14Vse   10.092  5:57
133  Hans BalGoes44.25M60   10.050  5:58
134  Paul JoossGoes44.27M65   10.043  5:58
135  Collin Koenengoes44.49M40   9.961  6:01
Mannen: 112 (82.96%) => M35=12 - M40=13 - M45=13 - M50=15 - M55=7 - M60=12 - M65=10 - Mse=30
Vrouwen: 23 (17.04%) => V35=5 - V40=6 - V45=3 - V50=2 - Vse=7

Overzicht Top3, winnares en aantal deelnemers in eerdere jaren

JaarWinnaarTijd2eTijd 3eTijdWinnaresTijd#
2018Erwin Harmes23:26Patrick de Vos23:59Tim van der Broeke24:11Monique Verschuure27:25134
2017Tim van de Velde23:06Maarten de Nys23:41Erwin Adan23:55Monique Verschuure29:01115
2016Tim van de Velde23:42Maarten De Nys23:42Erwin Harmes23:45Annet van der Linde31:34105
2015Tim Pleijte22:47Erwin Harmes23:56Maarten De Nys24:14Monique Verschuure28:59155
2014Stein Van Es23:42Erwin Harmes23:46Mitchel van der Steen24:46Margriet Beekman-Rotte30:49137
2013Dieter Vanstreels22:38Emmanuel Loverie23:49Tommy Staal24:06Marianne de Kok29:08135
2012Maarten Mortelmans23:59Neal Bouterse24:27Willem de Korte27:06Paola van Gilst33:31106
2011Dieter Vanstreels23:29Roy Van Son23:35Jeroen Maas23:45Saskia Goole32:33102
2009Dieter Vanstreels23:39Bart Verschoren23:56Maarten Mortelmans24:07Astrid den Herder32:2783
2008Stein Van Es23:44Tim Pleijte23:49Bart Verschoren24:32Astrid den Herder32:0786
2007Bart Verschoren24:11Michel Schrier25:20Stein van Es25:36Leonie Ton31:3473
2006Bart Verschoren23:53Loic Helin24:43Ruud Woord25:07Marianne de Kok29:1797
2005Bart Verschoren23:29Ben Quintelier24:39Alex Storms24:45Andere afstand43
2004Bart Verschoren24:01Alex Storms24:13Ruud Woord24:17Andere afstand56
2003Bart Verschoren24:14Joost de Klerk24:30Alwin Vermeulen24:35Andere afstand21
2002Bart Verschoren23:33Ruben Scheurwater24:04Alex Storms24:21Andere afstand74
2001Armand van der Smissen22:58Jeroen Punt23:46Bart Verschoren24:11Andere afstand21
2000Jeroen Punt23:36Bart Verschoren24:22Alwin Vermeulen24:27Andere afstand3
1999Dennis Klasen23:33Koen Raymaekers23:53Niels Koole24:18Andere afstand3
1998John Vermeule23:12Rachid Ben Meziane23:31Raf Peeters24:02Andere afstand3
1997John Vermeule23:07Benny Ceulemans23:24Raf Peeters23:31Andere afstand3
1995Mauricio Gonzalez22:23Theo van den Abeele22:30Robin Punt22:41Andere afstand3
1994Robin Punt22:21Dennis Klasen22:38Erik Punt22:51Andere afstand31
1993Erik Punt22:34Hans van de Griendt22:59Robin Punt23:13Andere afstand3
1992Raf Wyns21:55Michel de Maat22:22Rudi Cock22:37Andere afstand3
1991Michel de Maat23:09Domien Brandsma23:20Hans van de Griendt23:26Andere afstand3
1990Geert Bouton23:00Leon van der Velden23:03Rian van den Broeke23:21Andere afstand3
1989Geert Bouton22:58Leon van der Velden23:04Marc Nevens23:22Andere afstand55
1988Jo Slagmolen22:54Leon van der Velden22:56Erik Punt23:16Andere afstand3
1987Leon van der Velden22:51Frank Kooman23:25Hans van Voorden23:26Andere afstand3
1986Dave Cameron22:43Frank Kooman23:23Leon van der Velden23:27Andere afstand3
1985Johan de Vlieger24:04Albert Karstanje24:09Frans Krijnsen24:11Andere afstand42
1984Luc Wijns22:18Thomas Langhammer22:40Aart Stigter23:06Andere afstand3
1983Luc Wijns22:24Kim Reijnierse22:55Huib Dalebout23:17Andere afstand3
1982Marc Nevens23:24John Vermeule23:42Piet Vonck23:47Andere afstand3
1981Marc Nevens23:00Jan de Bart23:26Kim Reijnierse23:34Andere afstand3
1980Marc Nevens22:51Dirk Geens23:27R. Blocks23:45Andere afstand3
1979Harry Patist23:16Dirk Geens23:34Johan Antheunisse23:42Andere afstand3
1978Marc Smet22:01Piet Vonck22:35Marc Nevens22:42Andere afstand3
1977Marc Smet22:42Marc Nevens23:08A. Vidas24:05Andere afstand3
1976Marc Nevens22:34Marien van Prooyen23:32Andre Boonen23:47Andere afstand3
1975Marien van Prooyen23:33K. van der Heul23:41Johan Antheunisse23:49Andere afstand39
1974Piet Vonck22:45J. Brands24:01J. van Eekelen24:22Andere afstand16
1973Piet Vonck22:54Kees van Dalen23:21H. van Kasteren23:33Andere afstand29


Snelheid en tempo zijn berekend op de vermelde afstand. Bij een onjuiste afstand wijken deze uiteraard af!

Fouten melden via info@atletiekzeeland.nl Categorie fout? Mail dan geboortedatum. (geldt alleen voor Zeeuwen)

De server had 0.168 seconden nodig om deze lijst met 135 prestaties samen te stellen.

Terug naar boven

Vorige uitslagen
DatumWedstrijdPlaatsVereniging Hits
06-01-2018 57e WallenloopGoesAV'560
07-01-2017 56e WallenloopGoesAV'560
09-01-2016 55e WallenloopGoesAV'561473
03-01-2015 54e WallenloopGoesAV'561612
04-01-2014 53e WallenloopGoesAV'562124
07-01-2012 51e WallenloopGoesAV'562296
08-01-2011 50e WallenloopGoesAV'562640
03-01-2009 48e WallenloopGoesAV'561324
05-01-2008 47e WallenloopGoesAV'561410
06-01-2007 46e WallenloopGoesAV'561263
07-01-2006 45e WallenloopGoesAV'561028
08-01-2005 44e WallenloopGoesAV'56883
03-01-2004 43e WallenloopGoesAV'561060
03-01-2003 41e WallenloopGoesAV'56104
05-01-2002 40e WallenloopGoesAV'56154
06-01-2001 39e WallenloopGoesAV'56123
08-01-2000 38e WallenloopGoesAV'56106
02-01-1999 37e WallenloopGoesAV'5697
03-01-1998 36e WallenloopGoesAV'56139
04-01-1997 35e WallenloopGoesAV'56123
07-01-1995 34e WallenloopGoesAV'56113
08-01-1994 33e WallenloopGoesAV'56113
02-01-1993 32e WallenloopGoesAV'56135
04-01-1992 31e WallenloopGoesAV'56127
05-01-1991 30e WallenloopGoesAV'56113
06-01-1990 29e WallenloopGoesAV'56122
07-01-1989 28e WallenloopGoesAV'56138
09-01-1988 27e WallenloopGoesAV'56137
03-01-1987 26e WallenloopGoesAV'56114
04-01-1986 25e WallenloopGoesAV'56113
05-01-1985 24e WallenloopGoesAV'56175
07-01-1984 23e WallenloopGoesAV'56137
02-01-1983 22e WallenloopGoesAV'56104
09-01-1982 21e WallenloopGoesAV'56116
03-01-1981 20e WallenloopGoesAV'56122
05-01-1980 19e WallenloopGoesAV'56130
06-01-1979 18e WallenloopGoesAV'56121
07-01-1978 17e WallenloopGoesAV'56126
08-01-1977 16e WallenloopGoesAV'56124
10-01-1976 15e WallenloopGoesAV'56133
04-01-1975 14e WallenloopGoesAV'56123
05-01-1974 13e WallenloopGoesAV'56108
06-01-1973 12e WallenloopGoesAV'56139

 
Recente Zeeuwse prestaties meer prestaties
14-01: 46e Halve van Egmond (14)
17-12: 12e Spark marathon Spijkenisse (11)
26-11: Halve Marathon Tarragona (1)
26-11: Firenze Marathon Florence (4)
Recente video(s)
Atletiek Zeeland © 2018